Aérodrome :
LOGIN :

S'inscrire | Disclaimer

   EN    FR    IT 

 










Légende :    VFR   VFR Marginal   IFR   IFR Intensif   IFR Très Intensif
Visi : 
Plafond : 
>= 8 km
>= 3000ft
5 à 8 km
1000 à 3000 ft
1500m à 5 km
500 à 1000 ft
800 à 1500m
200 à 500 ft
< 800m
< 200 ft
Symboles :   Orages  Brouillard  Fortes neiges  Fortes précipitations  Vent > 20 kt
SIGMETs :   Divers  Orages  Givrage  Turbulence  Onde Orograph.  Cendres Volcan.







- Altitude de l'aérodrome : 1197 ft
- Code IATA : SPM


ETAD - Spangdahlem Ab

DERNIER METAR :
  • 261601Z AUTO 27009KT 9999 FEW018 SCT055 11/02 A3006 RMK AO2 RAE1559DZB1559E01 SLPNO $

METARs EXPIRÉS :
  • 261456Z AUTO 23018KT 9999 SCT050 SCT090 BKN140 BKN180 12/01 A3005 RMK AO2 SLPNO T01240005 57007 $
  • 261358Z 22016KT 9999 SCT050 SCT085 13/01 A3006 RMK SLPNO 58004

TAF AMD TAF ETAD
Valide du 26 à 11h jusqu'au 27 à 17h UTC


261158Z 2611/2717 23015KT 9000 -SHRA BKN050 QNH3005INS
BECMG 2615/2616 VRB06KT 9999 NSW SCT040 QNH3007INS
BECMG 2709/2710 14009KT 9999 FEW050 QNH2992INS TX15/2616Z TN04/2702Z
Pas de NOTAMs connus pour ce terrain.



MET'MAP, la Météo Aéronautique d'un coup d'oeil ! - Copyright ORBIFLY Décembre 2007 - Disclaimer

ORBIFLY MET'MAP TEAM :

Programmation & Développement : Alexandra Zaïnal
Conception & Développement : Baudouin d'Aumeries
Co-Programmation & Développement : Marc-Olivier Méhu
Soutien technique & logistique : Manuel Goepfert

Contact : metmap@orbifly.com




SOURCES & CREDITS :

   NOAA